Time;durP1;ratioP1;P1;durP2;ratioP2;P2;SDS_P1;SDS_P2;PMS_P1;PMS_P2;Temp;Humidity;BMP_temperature;BMP_pressure;BME280_temperature;BME280_humidity;BME280_pressure;Samples;Min_cycle;Max_cycle;Signal;HPM_P1;HPM_P2
2022/09/05 00:01:28;;;;;;;11.38;8.40;;;;;;;;;;6245294;23;20016;-70
2022/09/05 00:04:00;;;;;;;14.27;9.90;;;;;;;;;;6245348;23;20020;-70
2022/09/05 00:06:51;;;;;;;12.05;8.57;;;;;;;;;;6245328;23;20012;-70
2022/09/05 00:09:25;;;;;;;19.00;13.20;;;;;;;;;;6244979;23;20020;-70
2022/09/05 00:11:59;;;;;;;17.42;13.43;;;;;;;;;;6245289;23;20020;-70
2022/09/05 00:14:32;;;;;;;26.45;20.45;;;;;;;;;;6245283;23;20062;-69
2022/09/05 00:17:23;;;;;;;15.18;12.00;;;;;;;;;;6218326;23;20103;-69
2022/09/05 00:20:16;;;;;;;21.38;16.33;;;;;;;;;;6245285;23;20446;-70
2022/09/05 00:23:33;;;;;;;13.38;8.30;;;;;;;;;;6245205;23;20350;-69
2022/09/05 00:26:20;;;;;;;;;;;;;;;;;;6177985;23;20034;-69
2022/09/05 00:29:20;;;;;;;20.05;14.95;;;;;;;;;;6245137;23;19915;-70
2022/09/05 00:32:36;;;;;;;15.98;10.77;;;;;;;;;;6196647;23;20074;-70
2022/09/05 00:35:05;;;;;;;20.42;15.68;;;;;;;;;;6220211;23;20087;-70
2022/09/05 00:37:37;;;;;;;21.95;15.68;;;;;;;;;;6245158;23;20027;-69
2022/09/05 00:40:24;;;;;;;20.42;14.65;;;;;;;;;;6245120;23;20373;-69
2022/09/05 00:42:54;;;;;;;15.85;12.48;;;;;;;;;;6244942;23;20023;-70
2022/09/05 00:45:26;;;;;;;23.42;17.45;;;;;;;;;;6245672;23;20013;-69
2022/09/05 00:48:06;;;;;;;12.45;9.63;;;;;;;;;;6245092;23;20020;-69
2022/09/05 00:50:52;;;;;;;18.67;13.05;;;;;;;;;;6246748;23;20016;-69
2022/09/05 00:53:22;;;;;;;24.50;17.00;;;;;;;;;;6247149;23;20339;-70
2022/09/05 00:55:56;;;;;;;13.38;10.20;;;;;;;;;;6246908;23;20037;-69
2022/09/05 00:58:25;;;;;;;;;;;;;;;;;;6247492;23;20042;-69
2022/09/05 01:00:57;;;;;;;36.75;27.75;;;;;;;;;;6247066;23;20280;-69
2022/09/05 01:03:34;;;;;;;32.28;23.10;;;;;;;;;;6246730;23;20024;-69
2022/09/05 01:06:14;;;;;;;14.25;10.25;;;;;;;;;;6246822;23;20446;-69
2022/09/05 01:08:54;;;;;;;13.50;9.82;;;;;;;;;;6246976;23;20074;-69
2022/09/05 01:11:52;;;;;;;15.30;10.20;;;;;;;;;;6246696;23;20020;-70
2022/09/05 01:14:36;;;;;;;49.17;35.25;;;;;;;;;;6246770;23;20012;-69
2022/09/05 01:17:26;;;;;;;13.32;10.15;;;;;;;;;;6220162;23;20016;-69
2022/09/05 01:19:57;;;;;;;13.77;9.48;;;;;;;;;;6246845;23;20020;-70
2022/09/05 01:23:03;;;;;;;16.83;9.98;;;;;;;;;;6246750;23;20066;-69
2022/09/05 01:25:34;;;;;;;13.40;10.13;;;;;;;;;;6247015;23;20044;-69
2022/09/05 01:28:08;;;;;;;15.35;10.57;;;;;;;;;;6246687;23;20012;-69
2022/09/05 01:31:00;;;;;;;12.60;10.20;;;;;;;;;;6247001;23;20020;-69
2022/09/05 01:33:48;;;;;;;13.13;9.38;;;;;;;;;;6246466;23;20016;-69
2022/09/05 01:36:34;;;;;;;13.38;10.45;;;;;;;;;;6231406;23;20454;-69
2022/09/05 01:39:16;;;;;;;20.67;15.00;;;;;;;;;;6194755;23;20020;-69
2022/09/05 01:42:13;;;;;;;24.88;19.27;;;;;;;;;;6224496;23;20035;-69
2022/09/05 01:44:56;;;;;;;20.90;15.70;;;;;;;;;;6246460;23;20016;-69
2022/09/05 01:47:36;;;;;;;28.10;21.13;;;;;;;;;;6246276;23;20063;-69
2022/09/05 01:50:06;;;;;;;13.73;9.77;;;;;;;;;;6246415;23;20115;-69
2022/09/05 01:52:48;;;;;;;13.57;10.30;;;;;;;;;;6246567;23;20026;-69
2022/09/05 01:55:31;;;;;;;20.58;14.43;;;;;;;;;;6246447;23;20465;-69
2022/09/05 01:58:02;;;;;;;19.48;14.88;;;;;;;;;;6246715;23;20327;-69
2022/09/05 02:00:34;;;;;;;16.98;13.45;;;;;;;;;;6245804;23;20442;-70
2022/09/05 02:03:20;;;;;;;25.02;17.25;;;;;;;;;;6246352;23;20067;-69
2022/09/05 02:06:06;;;;;;;15.05;10.45;;;;;;;;;;6246332;23;20016;-70
2022/09/05 02:08:34;;;;;;;18.20;12.75;;;;;;;;;;6246207;23;20012;-69
2022/09/05 02:11:06;;;;;;;16.98;12.52;;;;;;;;;;6246470;23;20028;-70
2022/09/05 02:13:33;;;;;;;17.30;13.73;;;;;;;;;;6219497;23;20044;-69
2022/09/05 02:16:10;;;;;;;18.75;12.02;;;;;;;;;;6246210;23;20469;-69
2022/09/05 02:18:46;;;;;;;15.13;11.20;;;;;;;;;;6246280;23;20027;-69
2022/09/05 02:21:27;;;;;;;14.98;13.18;;;;;;;;;;6246209;23;20016;-69
2022/09/05 02:24:01;;;;;;;16.63;13.68;;;;;;;;;;6219772;23;20083;-69
2022/09/05 02:26:33;;;;;;;15.63;13.13;;;;;;;;;;6246196;23;20020;-69
2022/09/05 02:29:12;;;;;;;13.50;10.75;;;;;;;;;;6219210;23;20066;-70
2022/09/05 02:32:02;;;;;;;13.60;10.73;;;;;;;;;;6245886;23;20016;-69
2022/09/05 02:34:34;;;;;;;12.45;9.57;;;;;;;;;;6246260;23;20086;-69
2022/09/05 02:37:18;;;;;;;14.25;10.40;;;;;;;;;;6246059;23;20020;-69
2022/09/05 02:40:09;;;;;;;15.40;12.23;;;;;;;;;;6245957;23;20016;-70
2022/09/05 02:43:15;;;;;;;17.63;13.50;;;;;;;;;;6246288;23;20386;-70
2022/09/05 02:46:16;;;;;;;14.38;10.63;;;;;;;;;;6245923;23;20456;-69
2022/09/05 02:49:08;;;;;;;14.35;12.00;;;;;;;;;;6245925;23;20013;-69
2022/09/05 02:52:15;;;;;;;19.67;13.15;;;;;;;;;;6245799;23;20020;-70
2022/09/05 02:55:07;;;;;;;31.15;22.55;;;;;;;;;;6245902;23;20508;-70
2022/09/05 02:58:14;;;;;;;24.52;18.25;;;;;;;;;;6245694;23;20016;-70
2022/09/05 03:01:00;;;;;;;22.98;17.65;;;;;;;;;;6246095;23;20035;-70
2022/09/05 03:03:33;;;;;;;16.67;12.68;;;;;;;;;;6245773;23;20020;-70
2022/09/05 03:06:11;;;;;;;31.30;22.63;;;;;;;;;;6245762;23;20012;-69
2022/09/05 03:08:42;;;;;;;22.97;16.40;;;;;;;;;;6246037;23;20017;-69
2022/09/05 03:11:28;;;;;;;24.38;13.68;;;;;;;;;;6245279;23;20016;-69
2022/09/05 03:14:17;;;;;;;24.17;17.65;;;;;;;;;;6245568;23;20062;-69
2022/09/05 03:17:03;;;;;;;20.27;14.95;;;;;;;;;;6245856;23;20016;-69
2022/09/05 03:19:36;;;;;;;26.38;20.90;;;;;;;;;;6245369;23;20320;-69
2022/09/05 03:22:16;;;;;;;19.73;13.50;;;;;;;;;;6245477;23;20066;-69
2022/09/05 03:24:48;;;;;;;24.17;17.88;;;;;;;;;;6245625;23;20016;-69
2022/09/05 03:27:41;;;;;;;22.35;16.20;;;;;;;;;;6218643;23;20046;-68
2022/09/05 03:30:31;;;;;;;26.42;17.00;;;;;;;;;;6245463;23;20016;-69
2022/09/05 03:33:18;;;;;;;20.20;15.63;;;;;;;;;;6244868;23;20095;-69
2022/09/05 03:36:05;;;;;;;23.95;17.05;;;;;;;;;;6218585;23;20040;-69
2022/09/05 03:38:35;;;;;;;21.85;16.30;;;;;;;;;;6218608;23;20324;-69
2022/09/05 03:41:06;;;;;;;18.73;14.85;;;;;;;;;;6245442;23;20087;-69
2022/09/05 03:43:52;;;;;;;15.35;11.90;;;;;;;;;;6245412;23;20499;-69
2022/09/05 03:46:38;;;;;;;17.75;13.77;;;;;;;;;;6245506;23;20020;-69
2022/09/05 03:49:12;;;;;;;24.85;16.45;;;;;;;;;;6245346;23;20373;-69
2022/09/05 03:52:35;;;;;;;21.50;12.48;;;;;;;;;;6245224;23;20075;-69
2022/09/05 03:55:25;;;;;;;17.90;12.93;;;;;;;;;;6122941;23;20049;-69
2022/09/05 03:58:28;;;;;;;17.92;12.30;;;;;;;;;;6218529;23;20112;-69
2022/09/05 04:01:19;;;;;;;16.80;12.40;;;;;;;;;;6245283;23;20022;-69
2022/09/05 04:04:11;;;;;;;19.25;12.15;;;;;;;;;;6245096;23;20020;-69
2022/09/05 04:07:05;;;;;;;17.75;12.60;;;;;;;;;;6245193;23;20036;-69
2022/09/05 04:09:55;;;;;;;18.38;12.88;;;;;;;;;;6245200;23;20506;-69
2022/09/05 04:12:26;;;;;;;22.30;16.15;;;;;;;;;;6245162;23;20016;-69
2022/09/05 04:14:59;;;;;;;20.42;13.75;;;;;;;;;;6245483;23;20473;-68
2022/09/05 04:17:27;;;;;;;20.30;13.73;;;;;;;;;;6245869;23;20016;-69
2022/09/05 04:20:15;;;;;;;21.08;14.23;;;;;;;;;;6218324;23;20020;-68
2022/09/05 04:22:49;;;;;;;19.08;13.57;;;;;;;;;;6245000;23;20016;-69
2022/09/05 04:25:40;;;;;;;18.20;13.35;;;;;;;;;;6220097;23;20024;-69
2022/09/05 04:28:07;;;;;;;22.42;15.13;;;;;;;;;;6192077;23;20027;-68
2022/09/05 04:30:46;;;;;;;17.27;12.65;;;;;;;;;;6246800;23;20022;-67
2022/09/05 04:33:32;;;;;;;19.73;13.02;;;;;;;;;;6247279;23;20027;-67
2022/09/05 04:36:15;;;;;;;18.52;13.90;;;;;;;;;;6247120;23;20020;-67
2022/09/05 04:38:45;;;;;;;21.48;15.00;;;;;;;;;;6246999;23;20018;-67
2022/09/05 04:41:12;;;;;;;34.80;25.00;;;;;;;;;;6246127;23;20026;-68
2022/09/05 04:43:51;;;;;;;39.42;27.15;;;;;;;;;;6244904;23;20066;-68
2022/09/05 04:46:24;;;;;;;22.15;13.68;;;;;;;;;;6246012;23;20023;-68
2022/09/05 04:48:56;;;;;;;20.02;14.05;;;;;;;;;;6246290;23;20020;-68
2022/09/05 04:51:35;;;;;;;28.63;18.60;;;;;;;;;;6219033;23;20028;-69
2022/09/05 04:54:02;;;;;;;24.70;17.27;;;;;;;;;;6219944;23;20040;-69
2022/09/05 04:56:32;;;;;;;29.98;19.75;;;;;;;;;;6246818;23;20020;-68
2022/09/05 04:59:04;;;;;;;22.83;13.68;;;;;;;;;;6246985;23;20036;-68
2022/09/05 05:01:54;;;;;;;34.95;25.60;;;;;;;;;;6246922;23;20020;-68
2022/09/05 05:04:41;;;;;;;28.02;18.90;;;;;;;;;;6246836;23;20027;-68
2022/09/05 05:07:39;;;;;;;24.60;17.90;;;;;;;;;;6246896;23;20095;-69
2022/09/05 05:10:09;;;;;;;30.95;22.65;;;;;;;;;;6246660;23;20049;-69
2022/09/05 05:13:05;;;;;;;26.83;16.38;;;;;;;;;;6245805;23;20091;-68
2022/09/05 05:15:56;;;;;;;24.95;16.52;;;;;;;;;;6246474;23;20090;-69
2022/09/05 05:18:47;;;;;;;37.75;25.13;;;;;;;;;;6245631;23;20016;-69
2022/09/05 05:21:30;;;;;;;31.83;21.60;;;;;;;;;;6247056;23;20039;-68
2022/09/05 05:23:57;;;;;;;23.70;16.75;;;;;;;;;;6246808;23;20023;-69
2022/09/05 05:26:25;;;;;;;27.83;19.80;;;;;;;;;;6246771;23;20023;-69
2022/09/05 05:29:00;;;;;;;22.75;15.50;;;;;;;;;;6246587;23;20026;-69
2022/09/05 05:31:29;;;;;;;24.95;16.30;;;;;;;;;;6246579;23;20099;-69
2022/09/05 05:34:04;;;;;;;21.00;14.75;;;;;;;;;;6246371;23;20012;-69
2022/09/05 05:36:59;;;;;;;20.00;14.63;;;;;;;;;;6246303;23;20062;-69
2022/09/05 05:39:28;;;;;;;30.88;22.90;;;;;;;;;;6246412;23;20034;-69
2022/09/05 05:41:57;;;;;;;28.05;21.83;;;;;;;;;;6246398;23;20095;-69
2022/09/05 05:44:34;;;;;;;20.13;16.05;;;;;;;;;;6246490;23;20438;-69
2022/09/05 05:47:06;;;;;;;30.98;23.17;;;;;;;;;;6246606;23;20512;-68
2022/09/05 05:49:44;;;;;;;29.27;23.85;;;;;;;;;;6246442;23;20043;-68
2022/09/05 05:52:14;;;;;;;23.63;17.65;;;;;;;;;;6246258;23;20020;-69
2022/09/05 05:54:54;;;;;;;24.50;19.75;;;;;;;;;;6219591;23;20016;-68
2022/09/05 05:57:57;;;;;;;31.02;19.15;;;;;;;;;;6246646;23;20020;-69
2022/09/05 06:00:25;;;;;;;27.00;20.50;;;;;;;;;;6246672;23;20123;-69
2022/09/05 06:03:09;;;;;;;26.27;21.17;;;;;;;;;;6246342;23;20106;-68
2022/09/05 06:06:08;;;;;;;31.45;23.33;;;;;;;;;;6246776;22;20383;-69
2022/09/05 06:08:51;;;;;;;24.85;20.40;;;;;;;;;;6246230;23;20020;-69
2022/09/05 06:11:58;;;;;;;26.13;20.25;;;;;;;;;;6246121;23;20016;-68
2022/09/05 06:15:02;;;;;;;26.50;19.15;;;;;;;;;;6246163;22;20047;-69
2022/09/05 06:17:58;;;;;;;24.98;18.77;;;;;;;;;;6246188;22;20447;-69
2022/09/05 06:20:43;;;;;;;22.67;18.70;;;;;;;;;;6246016;22;20347;-68
2022/09/05 06:23:55;;;;;;;20.38;16.33;;;;;;;;;;6246029;23;20390;-68
2022/09/05 06:26:43;;;;;;;23.08;17.75;;;;;;;;;;6246093;22;20039;-68
2022/09/05 06:29:20;;;;;;;18.50;15.55;;;;;;;;;;6246068;22;20403;-69
2022/09/05 06:31:58;;;;;;;16.77;14.35;;;;;;;;;;6245913;22;20016;-68
2022/09/05 06:34:49;;;;;;;18.80;14.45;;;;;;;;;;6246149;23;20074;-68
2022/09/05 06:37:20;;;;;;;18.63;16.05;;;;;;;;;;6234655;23;20020;-68
2022/09/05 06:40:13;;;;;;;19.02;14.95;;;;;;;;;;6246533;22;20023;-68
2022/09/05 06:43:13;;;;;;;18.45;13.38;;;;;;;;;;6211723;22;20055;-69
2022/09/05 06:45:40;;;;;;;41.65;34.38;;;;;;;;;;6196068;22;20020;-69
2022/09/05 06:48:14;;;;;;;18.67;15.45;;;;;;;;;;6246050;22;20019;-69
2022/09/05 06:51:01;;;;;;;32.25;27.08;;;;;;;;;;6245742;23;20095;-70
2022/09/05 06:53:47;;;;;;;46.67;36.58;;;;;;;;;;6245800;22;20089;-69
2022/09/05 06:56:15;;;;;;;26.30;22.58;;;;;;;;;;6245715;22;20367;-69
2022/09/05 06:59:12;;;;;;;55.05;45.92;;;;;;;;;;6246193;23;20020;-69
2022/09/05 07:01:57;;;;;;;23.08;17.92;;;;;;;;;;6246398;23;20055;-70
2022/09/05 07:04:33;;;;;;;17.80;13.75;;;;;;;;;;6246624;23;20016;-69
2022/09/05 07:07:21;;;;;;;16.35;12.88;;;;;;;;;;6245670;23;20016;-69
2022/09/05 07:09:50;;;;;;;16.65;12.40;;;;;;;;;;6245805;23;20038;-69
2022/09/05 07:12:20;;;;;;;17.70;13.90;;;;;;;;;;6245972;23;20020;-69
2022/09/05 07:15:11;;;;;;;14.27;11.50;;;;;;;;;;6245685;23;20050;-69
2022/09/05 07:17:38;;;;;;;16.80;13.18;;;;;;;;;;6230813;23;20030;-69
2022/09/05 07:20:33;;;;;;;13.05;10.20;;;;;;;;;;6245667;23;20017;-69
2022/09/05 07:23:39;;;;;;;12.82;9.60;;;;;;;;;;6245681;23;20289;-70
2022/09/05 07:26:27;;;;;;;12.07;9.75;;;;;;;;;;6245558;23;20016;-69
2022/09/05 07:29:20;;;;;;;7.70;4.88;;;;;;;;;;6245443;23;20458;-69
2022/09/05 07:31:50;;;;;;;9.55;6.80;;;;;;;;;;6245473;23;20508;-68
2022/09/05 07:34:23;;;;;;;11.93;8.60;;;;;;;;;;6245518;23;20375;-69
2022/09/05 07:36:56;;;;;;;12.10;8.85;;;;;;;;;;6219422;23;20381;-69
2022/09/05 07:39:53;;;;;;;9.38;6.32;;;;;;;;;;6218643;23;20031;-69
2022/09/05 07:42:41;;;;;;;8.00;5.80;;;;;;;;;;6245309;23;20047;-69
2022/09/05 07:45:10;;;;;;;10.63;6.55;;;;;;;;;;6245202;23;20019;-69
2022/09/05 07:47:40;;;;;;;15.50;12.02;;;;;;;;;;6218444;23;20024;-68
2022/09/05 07:50:09;;;;;;;13.90;9.13;;;;;;;;;;6245373;23;20501;-68
2022/09/05 07:52:58;;;;;;;11.40;9.40;;;;;;;;;;6245212;23;20099;-69
2022/09/05 07:55:52;;;;;;;10.93;7.85;;;;;;;;;;6245288;23;20012;-69
2022/09/05 07:59:00;;;;;;;9.57;6.82;;;;;;;;;;6244851;23;20016;-69
2022/09/05 08:01:28;;;;;;;9.85;8.25;;;;;;;;;;6245279;23;20040;-69
2022/09/05 08:03:59;;;;;;;8.27;6.60;;;;;;;;;;6244992;23;20439;-69
2022/09/05 08:06:33;;;;;;;9.38;6.20;;;;;;;;;;6245327;23;20091;-69
2022/09/05 08:09:31;;;;;;;8.77;6.85;;;;;;;;;;6245620;23;20095;-70
2022/09/05 08:12:20;;;;;;;7.03;5.65;;;;;;;;;;6218389;23;20342;-69
2022/09/05 08:14:54;;;;;;;5.13;3.10;;;;;;;;;;6245259;23;20498;-69
2022/09/05 08:17:23;;;;;;;7.88;4.38;;;;;;;;;;6245565;23;20012;-69
2022/09/05 08:19:56;;;;;;;;;;;;;;;;;;6245915;23;20012;-69
2022/09/05 08:22:26;;;;;;;5.20;3.97;;;;;;;;;;6245233;23;19916;-69
2022/09/05 08:25:00;;;;;;;6.78;4.25;;;;;;;;;;6244997;23;20016;-69
2022/09/05 08:27:47;;;;;;;10.15;4.80;;;;;;;;;;6245199;23;20012;-69
2022/09/05 08:30:15;;;;;;;6.03;4.60;;;;;;;;;;6245076;23;20038;-69
2022/09/05 08:32:58;;;;;;;9.30;4.57;;;;;;;;;;6245122;23;20020;-69
2022/09/05 08:35:43;;;;;;;5.20;3.53;;;;;;;;;;6245491;23;20342;-69
2022/09/05 08:38:12;;;;;;;34.92;28.05;;;;;;;;;;6245242;23;20016;-69
2022/09/05 08:40:49;;;;;;;5.32;4.43;;;;;;;;;;6245202;23;20012;-68
2022/09/05 08:43:32;;;;;;;4.28;3.67;;;;;;;;;;6218199;23;20042;-69
2022/09/05 08:46:32;;;;;;;7.28;4.25;;;;;;;;;;6218129;23;20367;-69
2022/09/05 08:49:32;;;;;;;4.18;3.55;;;;;;;;;;6245043;23;20016;-69
2022/09/05 08:52:09;;;;;;;6.28;4.40;;;;;;;;;;6245083;23;20062;-68
2022/09/05 08:54:53;;;;;;;6.53;3.47;;;;;;;;;;6244868;23;20012;-69
2022/09/05 08:57:32;;;;;;;5.43;3.88;;;;;;;;;;6244680;23;20012;-68
2022/09/05 09:00:07;;;;;;;7.05;3.40;;;;;;;;;;6244759;23;20055;-69
2022/09/05 09:02:53;;;;;;;7.10;5.13;;;;;;;;;;6245018;23;20088;-69
2022/09/05 09:05:23;;;;;;;6.47;3.67;;;;;;;;;;6244775;23;20450;-69
2022/09/05 09:08:29;;;;;;;9.25;5.30;;;;;;;;;;6244844;23;20012;-69
2022/09/05 09:11:06;;;;;;;4.95;3.28;;;;;;;;;;6246156;23;20020;-69
2022/09/05 09:13:51;;;;;;;6.70;4.03;;;;;;;;;;6246786;23;20027;-68
2022/09/05 09:16:28;;;;;;;5.68;4.82;;;;;;;;;;6247121;23;20073;-69
2022/09/05 09:18:56;;;;;;;9.40;6.85;;;;;;;;;;6246800;23;20055;-69
2022/09/05 09:21:35;;;;;;;6.22;4.03;;;;;;;;;;6246665;23;20442;-69
2022/09/05 09:24:07;;;;;;;8.60;5.00;;;;;;;;;;6220218;23;20016;-69
2022/09/05 09:26:42;;;;;;;16.13;8.55;;;;;;;;;;6247053;23;20016;-69
2022/09/05 09:29:09;;;;;;;;;;;;;;;;;;6247549;23;20012;-69
2022/09/05 09:31:56;;;;;;;10.25;6.13;;;;;;;;;;6246646;23;20321;-68
2022/09/05 09:34:31;;;;;;;11.45;8.02;;;;;;;;;;6219910;23;20054;-69
2022/09/05 09:37:15;;;;;;;10.10;7.10;;;;;;;;;;6247116;23;20012;-69
2022/09/05 09:40:01;;;;;;;6.47;4.50;;;;;;;;;;6246617;23;20016;-69
2022/09/05 09:42:37;;;;;;;4.32;3.45;;;;;;;;;;6246447;23;20027;-69
2022/09/05 09:45:14;;;;;;;5.55;3.70;;;;;;;;;;6219725;23;20052;-69
2022/09/05 09:48:11;;;;;;;4.47;3.13;;;;;;;;;;6246453;23;20008;-69
2022/09/05 09:50:44;;;;;;;4.07;2.90;;;;;;;;;;6246652;23;20512;-69
2022/09/05 09:53:28;;;;;;;4.05;3.08;;;;;;;;;;6246320;23;20074;-69
2022/09/05 09:56:16;;;;;;;5.07;3.30;;;;;;;;;;6219301;23;20012;-69
2022/09/05 09:58:47;;;;;;;5.55;3.33;;;;;;;;;;6246330;23;20073;-70
2022/09/05 10:01:14;;;;;;;4.80;3.33;;;;;;;;;;6246225;23;20584;-69
2022/09/05 10:04:02;;;;;;;4.05;3.10;;;;;;;;;;6246066;23;20464;-69
2022/09/05 10:07:08;;;;;;;4.68;2.97;;;;;;;;;;6246732;23;20074;-70
2022/09/05 10:10:31;;;;;;;5.97;4.32;;;;;;;;;;6246350;23;20022;-69
2022/09/05 10:13:21;;;;;;;5.60;3.70;;;;;;;;;;6153270;23;20025;-70
2022/09/05 10:16:05;;;;;;;5.25;3.50;;;;;;;;;;6246239;23;20328;-70
2022/09/05 10:19:00;;;;;;;6.65;3.20;;;;;;;;;;6246206;23;20020;-69
2022/09/05 10:21:33;;;;;;;5.53;3.85;;;;;;;;;;6211444;23;20034;-69
2022/09/05 10:24:19;;;;;;;3.80;2.90;;;;;;;;;;6246174;23;20071;-70
2022/09/05 10:27:05;;;;;;;7.88;4.20;;;;;;;;;;6246322;23;20353;-70
2022/09/05 10:29:42;;;;;;;6.05;4.20;;;;;;;;;;6247691;23;20016;-69
2022/09/05 10:32:29;;;;;;;7.85;3.80;;;;;;;;;;6246668;23;20020;-69
2022/09/05 10:35:23;;;;;;;5.57;3.38;;;;;;;;;;6213175;23;20020;-69
2022/09/05 10:37:53;;;;;;;6.43;3.60;;;;;;;;;;6246267;23;20026;-69
2022/09/05 10:40:22;;;;;;;4.72;3.40;;;;;;;;;;6246074;23;20012;-70
2022/09/05 10:42:52;;;;;;;5.03;3.22;;;;;;;;;;6246165;23;20022;-70
2022/09/05 10:45:27;;;;;;;5.85;3.53;;;;;;;;;;6245875;23;20075;-70
2022/09/05 10:48:14;;;;;;;4.07;3.42;;;;;;;;;;6245872;23;20047;-70
2022/09/05 10:50:43;;;;;;;4.22;3.50;;;;;;;;;;6245928;23;20024;-70
2022/09/05 10:53:23;;;;;;;5.47;3.65;;;;;;;;;;6245600;23;20020;-69
2022/09/05 10:55:53;;;;;;;4.85;3.10;;;;;;;;;;6245787;23;20081;-69
2022/09/05 10:58:43;;;;;;;5.13;3.15;;;;;;;;;;6245626;23;20450;-69
2022/09/05 11:01:31;;;;;;;4.35;3.28;;;;;;;;;;6222048;23;20517;-69
2022/09/05 11:04:28;;;;;;;4.38;2.85;;;;;;;;;;6245675;23;20051;-69
2022/09/05 11:07:22;;;;;;;4.10;3.00;;;;;;;;;;6245590;23;20066;-69
2022/09/05 11:10:18;;;;;;;3.90;3.00;;;;;;;;;;6245887;23;20016;-70
2022/09/05 11:13:04;;;;;;;4.45;3.47;;;;;;;;;;6245667;23;20016;-69
2022/09/05 11:15:53;;;;;;;4.07;2.75;;;;;;;;;;6245832;23;20024;-69
2022/09/05 11:18:50;;;;;;;6.07;2.85;;;;;;;;;;6238456;23;20446;-69
2022/09/05 11:21:22;;;;;;;4.50;2.70;;;;;;;;;;6246069;23;20023;-70
2022/09/05 11:24:05;;;;;;;5.70;2.80;;;;;;;;;;6245645;23;20012;-69
2022/09/05 11:26:37;;;;;;;7.43;3.40;;;;;;;;;;6245702;23;20016;-69
2022/09/05 11:29:10;;;;;;;4.57;3.15;;;;;;;;;;6245581;23;20458;-69
2022/09/05 11:31:40;;;;;;;5.40;3.30;;;;;;;;;;6245574;23;20511;-70
2022/09/05 11:34:34;;;;;;;3.50;2.78;;;;;;;;;;6223470;23;20050;-69
2022/09/05 11:37:22;;;;;;;5.15;3.10;;;;;;;;;;6245595;23;20134;-68
2022/09/05 11:40:09;;;;;;;6.15;3.20;;;;;;;;;;6245813;23;20046;-69
2022/09/05 11:43:15;;;;;;;5.93;3.20;;;;;;;;;;6245467;23;20020;-68
2022/09/05 11:45:43;;;;;;;5.05;2.90;;;;;;;;;;6245341;23;20044;-70
2022/09/05 11:48:22;;;;;;;6.80;3.78;;;;;;;;;;6245190;23;20016;-71
2022/09/05 11:50:52;;;;;;;5.30;3.42;;;;;;;;;;6245325;23;20012;-69
2022/09/05 11:53:35;;;;;;;4.53;3.33;;;;;;;;;;6245270;23;20020;-69
2022/09/05 11:56:18;;;;;;;6.25;5.32;;;;;;;;;;6245333;23;20504;-68
2022/09/05 11:58:49;;;;;;;5.80;3.33;;;;;;;;;;6245183;23;20016;-68
2022/09/05 12:01:16;;;;;;;4.90;3.38;;;;;;;;;;6245441;23;20324;-69
2022/09/05 12:04:22;;;;;;;4.68;3.50;;;;;;;;;;6245310;23;20346;-69
2022/09/05 12:07:00;;;;;;;4.00;3.10;;;;;;;;;;6245345;23;20012;-69
2022/09/05 12:09:32;;;;;;;5.13;2.70;;;;;;;;;;6245318;23;20462;-70
2022/09/05 12:12:25;;;;;;;6.05;4.43;;;;;;;;;;6245159;23;20012;-71
2022/09/05 12:15:25;;;;;;;5.07;3.47;;;;;;;;;;6223894;23;20023;-70
2022/09/05 12:17:52;;;;;;;5.50;3.40;;;;;;;;;;6245225;23;20020;-70
2022/09/05 12:20:23;;;;;;;3.42;2.72;;;;;;;;;;6245473;23;20024;-70
2022/09/05 12:22:57;;;;;;;4.30;3.08;;;;;;;;;;6245100;23;20016;-70
2022/09/05 12:25:32;;;;;;;4.93;2.87;;;;;;;;;;6245558;23;20100;-70
2022/09/05 12:28:40;;;;;;;3.70;2.78;;;;;;;;;;6244947;23;20242;-70
2022/09/05 12:31:32;;;;;;;5.53;3.42;;;;;;;;;;6245238;23;20078;-70
2022/09/05 12:34:49;;;;;;;3.47;2.60;;;;;;;;;;6244904;23;20074;-70
2022/09/05 12:37:44;;;;;;;3.47;2.78;;;;;;;;;;6245225;23;20036;-70
2022/09/05 12:40:36;;;;;;;6.63;3.75;;;;;;;;;;6245134;23;20020;-70
2022/09/05 12:43:26;;;;;;;4.93;2.80;;;;;;;;;;6245150;23;20016;-71
2022/09/05 12:46:26;;;;;;;5.47;2.85;;;;;;;;;;6246673;23;20017;-69
2022/09/05 12:49:01;;;;;;;4.05;3.13;;;;;;;;;;6246929;23;20069;-69
2022/09/05 12:51:36;;;;;;;5.88;2.97;;;;;;;;;;6220068;23;20359;-70
2022/09/05 12:54:34;;;;;;;6.28;3.17;;;;;;;;;;6219901;23;20020;-70
2022/09/05 12:57:07;;;;;;;3.78;2.63;;;;;;;;;;6246790;23;20012;-70
2022/09/05 13:00:01;;;;;;;5.57;4.03;;;;;;;;;;6246858;23;20346;-69
2022/09/05 13:02:52;;;;;;;7.22;4.55;;;;;;;;;;6246832;23;20027;-70
2022/09/05 13:05:50;;;;;;;5.47;3.38;;;;;;;;;;6246799;23;20020;-70
2022/09/05 13:08:20;;;;;;;3.65;2.60;;;;;;;;;;6246910;23;20022;-70
2022/09/05 13:10:52;;;;;;;4.47;3.50;;;;;;;;;;6246684;23;20433;-70
2022/09/05 13:13:52;;;;;;;7.40;2.80;;;;;;;;;;6246800;23;20043;-70
2022/09/05 13:16:43;;;;;;;4.68;3.60;;;;;;;;;;6246776;23;20040;-70
2022/09/05 13:19:18;;;;;;;6.53;3.80;;;;;;;;;;6246737;23;20024;-70
2022/09/05 13:21:51;;;;;;;4.60;3.58;;;;;;;;;;6219821;23;20062;-69
2022/09/05 13:24:31;;;;;;;3.00;2.55;;;;;;;;;;6246747;23;20021;-70
2022/09/05 13:27:12;;;;;;;4.60;2.78;;;;;;;;;;6246840;23;20042;-70
2022/09/05 13:29:52;;;;;;;4.47;3.30;;;;;;;;;;6246699;23;20019;-69
2022/09/05 13:32:43;;;;;;;4.82;2.90;;;;;;;;;;6246732;23;20358;-70
2022/09/05 13:35:32;;;;;;;4.70;2.97;;;;;;;;;;6246605;23;20096;-69
2022/09/05 13:38:26;;;;;;;4.65;2.90;;;;;;;;;;6246424;23;20083;-70
2022/09/05 13:41:17;;;;;;;4.75;3.50;;;;;;;;;;6246591;23;20046;-70
2022/09/05 13:43:55;;;;;;;6.70;3.50;;;;;;;;;;6246551;23;20042;-70
2022/09/05 13:47:04;;;;;;;5.22;2.78;;;;;;;;;;6219763;23;20099;-70
2022/09/05 13:49:52;;;;;;;4.68;3.25;;;;;;;;;;6244729;23;20074;-71
2022/09/05 13:52:42;;;;;;;5.63;3.30;;;;;;;;;;6246296;23;20016;-70
2022/09/05 13:55:28;;;;;;;6.28;3.83;;;;;;;;;;6219621;23;20043;-71
2022/09/05 13:58:08;;;;;;;7.60;5.22;;;;;;;;;;6246403;23;20085;-70
2022/09/05 14:00:39;;;;;;;6.30;3.20;;;;;;;;;;6246062;23;20028;-70
2022/09/05 14:03:18;;;;;;;3.85;3.13;;;;;;;;;;6245808;23;20031;-70
2022/09/05 14:06:30;;;;;;;6.22;3.85;;;;;;;;;;6216103;23;20343;-70
2022/09/05 14:09:28;;;;;;;14.23;9.57;;;;;;;;;;6216015;23;20021;-70
2022/09/05 14:12:05;;;;;;;6.05;4.03;;;;;;;;;;6215875;23;20481;-70
2022/09/05 14:14:39;;;;;;;3.28;2.40;;;;;;;;;;6214564;23;20334;-71
2022/09/05 14:17:34;;;;;;;5.95;3.90;;;;;;;;;;6214406;23;20595;-71
2022/09/05 14:23:14;;;;;;;10.45;5.68;;;;;;;;;;6214905;23;20020;-72
2022/09/05 14:25:43;;;;;;;6.65;3.55;;;;;;;;;;6213487;23;20016;-71
2022/09/05 14:28:13;;;;;;;4.68;3.50;;;;;;;;;;6163905;23;20024;-71
2022/09/05 14:30:52;;;;;;;3.53;3.10;;;;;;;;;;6215007;23;20387;-70
2022/09/05 14:33:46;;;;;;;6.35;3.50;;;;;;;;;;6215250;23;20013;-70
2022/09/05 14:36:39;;;;;;;7.45;3.28;;;;;;;;;;6215456;23;20047;-72
2022/09/05 14:39:45;;;;;;;5.75;3.00;;;;;;;;;;6215198;23;20509;-71
2022/09/05 14:42:20;;;;;;;6.30;3.75;;;;;;;;;;6214938;23;20382;-71
2022/09/05 14:44:59;;;;;;;3.72;2.83;;;;;;;;;;6215246;23;20439;-70
2022/09/05 14:47:34;;;;;;;4.80;2.80;;;;;;;;;;6213692;23;20092;-70
2022/09/05 14:50:12;;;;;;;5.20;3.08;;;;;;;;;;6213565;23;20091;-71
2022/09/05 14:53:16;;;;;;;6.25;3.13;;;;;;;;;;6215049;23;20028;-71
2022/09/05 14:56:10;;;;;;;4.22;3.00;;;;;;;;;;6213798;23;20017;-71
2022/09/05 14:59:08;;;;;;;3.80;3.25;;;;;;;;;;6215420;23;20082;-71
2022/09/05 15:02:02;;;;;;;5.05;3.50;;;;;;;;;;6215104;23;20016;-70
2022/09/05 15:04:55;;;;;;;4.15;3.20;;;;;;;;;;6234448;23;20028;-71
2022/09/05 15:07:44;;;;;;;13.48;6.45;;;;;;;;;;6245033;23;20123;-72
2022/09/05 15:10:20;;;;;;;7.35;3.67;;;;;;;;;;6245637;23;20012;-70
2022/09/05 15:13:22;;;;;;;6.75;5.15;;;;;;;;;;6245199;23;20012;-71
2022/09/05 15:15:58;;;;;;;7.82;4.35;;;;;;;;;;6244303;23;20086;-71
2022/09/05 15:18:31;;;;;;;5.50;3.55;;;;;;;;;;6243992;23;20059;-71
2022/09/05 15:21:18;;;;;;;5.72;3.92;;;;;;;;;;6243710;23;20028;-71
2022/09/05 15:24:01;;;;;;;10.73;5.65;;;;;;;;;;6244923;23;20119;-70
2022/09/05 15:26:30;;;;;;;4.55;3.35;;;;;;;;;;6244096;23;20031;-70
2022/09/05 15:29:12;;;;;;;5.15;4.50;;;;;;;;;;6244406;23;20019;-71
2022/09/05 15:31:41;;;;;;;4.30;3.75;;;;;;;;;;6243902;23;20062;-72
2022/09/05 15:34:25;;;;;;;6.63;4.13;;;;;;;;;;6243844;23;20047;-71
2022/09/05 15:36:54;;;;;;;6.80;5.00;;;;;;;;;;6243869;23;20046;-71
2022/09/05 15:39:38;;;;;;;6.88;5.25;;;;;;;;;;6243842;23;20016;-71
2022/09/05 15:42:12;;;;;;;8.02;3.83;;;;;;;;;;6243576;23;20098;-71
2022/09/05 15:44:39;;;;;;;8.53;4.40;;;;;;;;;;6243716;23;20012;-71
2022/09/05 15:47:28;;;;;;;6.85;3.38;;;;;;;;;;6243521;23;20087;-71
2022/09/05 15:49:57;;;;;;;5.75;4.07;;;;;;;;;;6243790;23;20095;-71
2022/09/05 15:52:26;;;;;;;6.95;4.30;;;;;;;;;;6217166;23;20106;-71
2022/09/05 15:54:57;;;;;;;6.13;4.60;;;;;;;;;;6243457;23;20363;-72
2022/09/05 15:57:34;;;;;;;5.95;3.55;;;;;;;;;;6243322;23;20012;-73
2022/09/05 16:00:05;;;;;;;4.72;3.40;;;;;;;;;;6243201;23;20122;-71
2022/09/05 16:02:36;;;;;;;98.95;87.70;;;;;;;;;;6217024;23;20020;-73
2022/09/05 16:05:07;;;;;;;55.88;49.65;;;;;;;;;;6243964;23;20035;-73